createdAt,value
2022-12-09T00:02:07.829Z,100126.97
2022-12-09T00:05:11.181Z,100130.34
2022-12-09T00:08:14.399Z,100139.91
2022-12-09T00:11:20.419Z,100135.97
2022-12-09T00:14:24.526Z,100143.66
2022-12-09T00:17:27.686Z,100135.19
2022-12-09T00:20:30.828Z,100143.00
2022-12-09T00:23:36.823Z,100139.09
2022-12-09T00:26:41.997Z,100135.59
2022-12-09T00:29:45.076Z,100136.44
2022-12-09T00:32:48.824Z,100148.44
2022-12-09T00:35:52.011Z,100140.09
2022-12-09T00:38:56.342Z,100145.28
2022-12-09T00:42:03.876Z,100145.28
2022-12-09T00:45:08.534Z,100154.94
2022-12-09T00:48:11.530Z,100160.06
2022-12-09T00:51:18.672Z,100154.03
2022-12-09T00:54:21.709Z,100161.00
2022-12-09T00:57:26.315Z,100157.63
2022-12-09T01:00:29.620Z,100163.63
2022-12-09T01:03:34.345Z,100168.75
2022-12-09T01:06:37.810Z,100175.84
2022-12-09T01:09:40.893Z,100176.91
2022-12-09T01:12:45.505Z,100180.44
2022-12-09T01:15:48.695Z,100178.66
2022-12-09T01:18:53.444Z,100175.41
2022-12-09T01:21:56.570Z,100174.69
2022-12-09T01:25:00.807Z,100172.16
2022-12-09T01:28:05.750Z,100179.09
2022-12-09T01:31:10.266Z,100170.53
2022-12-09T01:34:13.424Z,100167.97
2022-12-09T01:37:18.299Z,100175.69
2022-12-09T01:40:21.330Z,100176.53
2022-12-09T01:43:26.215Z,100181.75
2022-12-09T01:46:29.681Z,100173.47
2022-12-09T01:49:36.768Z,100178.00
2022-12-09T01:52:40.150Z,100179.84
2022-12-09T01:55:43.898Z,100177.41
2022-12-09T01:58:49.132Z,100178.28
2022-12-09T02:01:58.723Z,100180.84
2022-12-09T02:05:02.845Z,100173.13
2022-12-09T02:08:12.602Z,100175.09
2022-12-09T02:11:41.403Z,100170.69
2022-12-09T02:14:54.355Z,100172.47
2022-12-09T02:18:03.144Z,100164.78
2022-12-09T02:21:14.365Z,100166.53
2022-12-09T02:24:25.191Z,100167.50
2022-12-09T02:27:35.456Z,100170.06
2022-12-09T02:30:49.760Z,100163.94
2022-12-09T02:34:09.697Z,100173.97
2022-12-09T02:37:20.867Z,100169.53
2022-12-09T02:40:33.037Z,100165.13
2022-12-09T02:43:45.004Z,100160.19
2022-12-09T02:46:53.494Z,100165.88
2022-12-09T02:50:03.795Z,100155.63
2022-12-09T02:53:12.414Z,100149.53
2022-12-09T02:56:16.409Z,100145.13
2022-12-09T02:59:19.646Z,100149.34
2022-12-09T03:02:28.463Z,100151.06
2022-12-09T03:05:47.422Z,100150.75
2022-12-09T03:08:59.203Z,100147.13
2022-12-09T03:12:08.402Z,100146.25
2022-12-09T03:15:15.009Z,100156.28
2022-12-09T03:18:21.748Z,100140.97
2022-12-09T03:21:29.055Z,100139.19
2022-12-09T03:24:38.042Z,100134.28
2022-12-09T03:27:51.048Z,100139.38
2022-12-09T03:30:56.264Z,100135.19
2022-12-09T03:34:05.135Z,100124.13
2022-12-09T03:37:11.738Z,100120.34
2022-12-09T03:40:20.201Z,100127.19
2022-12-09T03:43:27.612Z,100138.44
2022-12-09T03:46:31.673Z,100130.63
2022-12-09T03:49:35.712Z,100126.03
2022-12-09T03:52:45.292Z,100126.13
2022-12-09T03:55:54.352Z,100133.59
2022-12-09T03:59:00.125Z,100132.78
2022-12-09T04:02:06.827Z,100134.50
2022-12-09T04:05:10.768Z,100130.34
2022-12-09T04:08:15.327Z,100133.03
2022-12-09T04:11:18.487Z,100134.50
2022-12-09T04:14:21.763Z,100131.94
2022-12-09T04:17:24.926Z,100137.97
2022-12-09T04:20:28.074Z,100128.50
2022-12-09T04:23:35.578Z,100130.72
2022-12-09T04:26:41.336Z,100126.50
2022-12-09T04:29:44.341Z,100118.75
2022-12-09T04:32:47.661Z,100124.75
2022-12-09T04:35:50.964Z,100128.78
2022-12-09T04:38:55.544Z,100121.94
2022-12-09T04:41:58.547Z,100121.09
2022-12-09T04:45:02.297Z,100123.53
2022-12-09T04:48:06.040Z,100130.34
2022-12-09T04:51:10.536Z,100131.22
2022-12-09T04:54:16.751Z,100137.13
2022-12-09T04:57:20.351Z,100126.09
2022-12-09T05:00:24.175Z,100122.69
2022-12-09T05:03:27.455Z,100121.72
2022-12-09T05:06:30.607Z,100120.81
2022-12-09T05:09:35.337Z,100118.13
2022-12-09T05:12:38.837Z,100120.13
2022-12-09T05:15:42.240Z,100123.38
2022-12-09T05:18:47.372Z,100121.84
2022-12-09T05:21:50.839Z,100109.84
2022-12-09T05:24:55.394Z,100105.56
2022-12-09T05:27:58.472Z,100113.28
2022-12-09T05:31:04.260Z,100112.47
2022-12-09T05:34:08.480Z,100132.16
2022-12-09T05:37:15.423Z,100132.25
2022-12-09T05:40:20.564Z,100127.25
2022-12-09T05:43:24.887Z,100131.53
2022-12-09T05:46:32.195Z,100126.50
2022-12-09T05:49:39.000Z,100131.00
2022-12-09T05:52:43.287Z,100128.50
2022-12-09T05:55:48.052Z,100128.56
2022-12-09T05:58:55.472Z,100135.34
2022-12-09T06:01:59.545Z,100134.50
2022-12-09T06:05:07.120Z,100136.22
2022-12-09T06:08:10.827Z,100128.56
2022-12-09T06:11:18.975Z,100129.38
2022-12-09T06:14:24.176Z,100128.50
2022-12-09T06:17:27.704Z,100131.03
2022-12-09T06:20:31.308Z,100126.91
2022-12-09T06:23:36.696Z,100126.78
2022-12-09T06:26:41.280Z,100137.81
2022-12-09T06:29:44.579Z,100135.25
2022-12-09T06:33:13.020Z,100143.63
2022-12-09T06:36:31.477Z,100140.38
2022-12-09T06:39:35.383Z,100155.69
2022-12-09T06:42:40.166Z,100154.88
2022-12-09T06:45:43.462Z,100153.06
2022-12-09T06:48:48.089Z,100153.09
2022-12-09T06:51:52.007Z,100152.25
2022-12-09T06:54:55.123Z,100158.94
2022-12-09T06:58:01.108Z,100159.72
2022-12-09T07:01:08.840Z,100162.41
2022-12-09T07:04:15.024Z,100159.97
2022-12-09T07:07:18.621Z,100152.25
2022-12-09T07:10:22.886Z,100156.47
2022-12-09T07:13:27.616Z,100154.81
2022-12-09T07:16:31.243Z,100152.19
2022-12-09T07:19:35.277Z,100165.84
2022-12-09T07:22:41.967Z,100153.97
2022-12-09T07:25:45.306Z,100157.44
2022-12-09T07:28:50.476Z,100156.53
2022-12-09T07:31:54.262Z,100163.44
2022-12-09T07:34:57.916Z,100157.44
2022-12-09T07:38:01.122Z,100154.69
2022-12-09T07:41:10.139Z,100158.00
2022-12-09T07:44:15.010Z,100161.16
2022-12-09T07:47:18.774Z,100164.50
2022-12-09T07:50:22.187Z,100161.03
2022-12-09T07:53:26.051Z,100160.13
2022-12-09T07:56:30.189Z,100168.50
2022-12-09T07:59:34.926Z,100168.50
2022-12-09T08:02:38.525Z,100162.53
2022-12-09T08:05:48.790Z,100169.41
2022-12-09T08:08:52.941Z,100163.44
2022-12-09T08:11:56.606Z,100167.66
2022-12-09T08:15:01.544Z,100172.75
2022-12-09T08:18:05.709Z,100169.31
2022-12-09T08:21:12.586Z,100157.66
2022-12-09T08:24:16.511Z,100157.63
2022-12-09T08:27:19.952Z,100165.25
2022-12-09T08:30:28.350Z,100162.53
2022-12-09T08:33:32.817Z,100160.69
2022-12-09T08:36:36.955Z,100170.16
2022-12-09T08:39:40.567Z,100171.81
2022-12-09T08:42:43.872Z,100169.06
2022-12-09T08:45:48.599Z,100165.44
2022-12-09T08:48:52.022Z,100170.69
2022-12-09T08:51:55.473Z,100172.44
2022-12-09T08:54:58.579Z,100170.78
2022-12-09T08:58:04.404Z,100180.09
2022-12-09T09:01:17.922Z,100171.41
2022-12-09T09:04:22.997Z,100181.63
2022-12-09T09:07:26.380Z,100177.34
2022-12-09T09:10:31.044Z,100176.22
2022-12-09T09:13:35.392Z,100169.25
2022-12-09T09:16:43.124Z,100175.25
2022-12-09T09:19:46.468Z,100170.91
2022-12-09T09:22:50.050Z,100176.34
2022-12-09T09:25:53.539Z,100184.03
2022-12-09T09:28:59.299Z,100179.63
2022-12-09T09:32:03.982Z,100175.13
2022-12-09T09:35:07.946Z,100180.41
2022-12-09T09:38:11.369Z,100186.25
2022-12-09T09:41:26.445Z,100172.56
2022-12-09T09:44:34.692Z,100169.88
2022-12-09T09:47:44.781Z,100169.03
2022-12-09T09:50:55.068Z,100165.66
2022-12-09T09:54:01.265Z,100173.41
2022-12-09T09:57:16.559Z,100170.81
2022-12-09T10:00:42.461Z,100173.31
2022-12-09T10:03:58.982Z,100169.03
2022-12-09T10:07:13.332Z,100166.53
2022-12-09T10:10:32.357Z,100155.13
2022-12-09T10:13:53.590Z,100152.22
2022-12-09T10:17:10.866Z,100143.44
2022-12-09T10:20:20.304Z,100146.78
2022-12-09T10:23:24.430Z,100153.38
2022-12-09T10:26:30.606Z,100145.94
2022-12-09T10:29:49.946Z,100143.84
2022-12-09T10:32:57.109Z,100145.50
2022-12-09T10:36:02.163Z,100142.19
2022-12-09T10:39:08.551Z,100142.78
2022-12-09T10:42:34.856Z,100141.06
2022-12-09T10:46:16.878Z,100134.28
2022-12-09T10:49:20.898Z,100133.59
2022-12-09T10:52:29.054Z,100140.63
2022-12-09T10:55:37.337Z,100129.09
2022-12-09T10:58:40.777Z,100135.50
2022-12-09T11:01:51.756Z,100137.50
2022-12-09T11:04:55.952Z,100130.25
2022-12-09T11:08:01.024Z,100128.25
2022-12-09T11:11:06.348Z,100124.59
2022-12-09T11:14:23.430Z,100123.31
2022-12-09T11:17:30.746Z,100117.44
2022-12-09T11:20:36.639Z,100115.34
2022-12-09T11:24:02.534Z,100116.75
2022-12-09T11:27:26.826Z,100104.81
2022-12-09T11:30:33.400Z,100110.44
2022-12-09T11:33:39.309Z,100110.91
2022-12-09T11:36:48.234Z,100108.19
2022-12-09T11:39:52.823Z,100104.28
2022-12-09T11:42:58.251Z,100104.44
2022-12-09T11:46:02.121Z,100096.13
2022-12-09T11:49:13.896Z,100102.69
2022-12-09T11:52:27.634Z,100100.44
2022-12-09T11:55:33.589Z,100100.75
2022-12-09T11:58:43.312Z,100104.09
2022-12-09T12:01:53.106Z,100106.72
2022-12-09T12:05:03.826Z,100114.19
2022-12-09T12:08:17.205Z,100106.50
2022-12-09T12:11:28.881Z,100096.38
2022-12-09T12:14:32.244Z,100101.84
2022-12-09T12:17:44.080Z,100104.75
2022-12-09T12:21:18.561Z,100112.03
2022-12-09T12:24:41.671Z,100115.69
2022-12-09T12:28:18.959Z,100109.44
2022-12-09T12:31:44.270Z,100096.66
2022-12-09T12:35:03.640Z,100094.41
2022-12-09T12:38:23.146Z,100087.50
2022-12-09T12:41:38.471Z,100081.75
2022-12-09T12:45:19.287Z,100083.44
2022-12-09T12:48:32.054Z,100081.75
2022-12-09T12:51:54.260Z,100089.56
2022-12-09T12:55:12.123Z,100089.81
2022-12-09T12:58:37.265Z,100093.56
2022-12-09T13:01:53.441Z,100089.13
2022-12-09T13:05:03.825Z,100087.31
2022-12-09T13:08:13.975Z,100080.00
2022-12-09T13:11:22.692Z,100077.50
2022-12-09T13:14:35.200Z,100080.97
2022-12-09T13:17:40.705Z,100073.84
2022-12-09T13:20:49.038Z,100073.28
2022-12-09T13:24:04.291Z,100077.19
2022-12-09T13:27:16.250Z,100069.28
2022-12-09T13:30:23.036Z,100085.22
2022-12-09T13:33:48.824Z,100090.31
2022-12-09T13:36:52.066Z,100093.78
2022-12-09T13:39:58.171Z,100081.38
2022-12-09T13:43:19.228Z,100090.44
2022-12-09T13:46:23.984Z,100096.44
2022-12-09T13:49:28.508Z,100093.97
2022-12-09T13:52:46.130Z,100100.53
2022-12-09T13:55:51.621Z,100108.59
2022-12-09T13:59:40.110Z,100111.28
2022-12-09T14:02:52.960Z,100104.81
2022-12-09T14:06:00.227Z,100107.09
2022-12-09T14:09:23.587Z,100100.06
2022-12-09T14:13:07.270Z,100109.16
2022-12-09T14:16:19.276Z,100115.38
2022-12-09T14:19:53.663Z,100110.13
2022-12-09T14:23:19.324Z,100103.34
2022-12-09T14:26:35.716Z,100111.88
2022-12-09T14:29:51.453Z,100112.41
2022-12-09T14:32:57.059Z,100113.66
2022-12-09T14:36:05.992Z,100109.09
2022-12-09T14:39:24.752Z,100112.47
2022-12-09T14:42:38.281Z,100115.50
2022-12-09T14:45:50.294Z,100100.38
2022-12-09T14:48:58.505Z,100102.59
2022-12-09T14:52:06.082Z,100109.03
2022-12-09T14:55:17.480Z,100107.38
2022-12-09T14:58:24.358Z,100106.47
2022-12-09T15:01:27.600Z,100105.44
2022-12-09T15:04:33.745Z,100114.53
2022-12-09T15:07:36.894Z,100115.41
2022-12-09T15:10:41.835Z,100117.47
2022-12-09T15:13:48.350Z,100113.91
2022-12-09T15:16:53.840Z,100116.41
2022-12-09T15:20:12.091Z,100118.94
2022-12-09T15:23:20.822Z,100125.84
2022-12-09T15:26:28.766Z,100116.94
2022-12-09T15:29:34.691Z,100126.59
2022-12-09T15:32:40.296Z,100131.47
2022-12-09T15:35:50.847Z,100133.34
2022-12-09T15:39:02.109Z,100132.13
2022-12-09T15:42:16.881Z,100135.50
2022-12-09T15:45:24.611Z,100138.06
2022-12-09T15:48:33.704Z,100140.59
2022-12-09T15:51:38.998Z,100136.31
2022-12-09T15:54:45.328Z,100134.94
2022-12-09T15:57:58.328Z,100123.03
2022-12-09T16:01:02.939Z,100130.91
2022-12-09T16:04:07.635Z,100133.31
2022-12-09T16:07:13.968Z,100135.88
2022-12-09T16:10:19.134Z,100138.56
2022-12-09T16:13:23.776Z,100135.06
2022-12-09T16:16:31.350Z,100142.34
2022-12-09T16:19:38.192Z,100150.38
2022-12-09T16:22:42.853Z,100149.84
2022-12-09T16:25:49.185Z,100139.56
2022-12-09T16:28:59.711Z,100142.84
2022-12-09T16:32:24.432Z,100139.81
2022-12-09T16:35:30.416Z,100151.72
2022-12-09T16:38:35.822Z,100141.13
2022-12-09T16:42:00.656Z,100141.00
2022-12-09T16:45:25.430Z,100133.84
2022-12-09T16:48:31.481Z,100136.31
2022-12-09T16:51:34.719Z,100135.38
2022-12-09T16:54:38.803Z,100139.84
2022-12-09T16:57:41.803Z,100139.66
2022-12-09T17:00:46.850Z,100131.69
2022-12-09T17:03:53.877Z,100133.38
2022-12-09T17:06:57.303Z,100129.13
2022-12-09T17:10:00.258Z,100130.00
2022-12-09T17:13:04.117Z,100131.09
2022-12-09T17:16:11.793Z,100132.81
2022-12-09T17:19:15.009Z,100126.69
2022-12-09T17:22:18.988Z,100124.78
2022-12-09T17:25:21.940Z,100122.16
2022-12-09T17:28:29.913Z,100127.63
2022-12-09T17:31:34.624Z,100129.44
2022-12-09T17:34:37.826Z,100134.78
2022-12-09T17:37:40.880Z,100136.56
2022-12-09T17:40:43.917Z,100144.06
2022-12-09T17:43:47.290Z,100141.84
2022-12-09T17:46:52.342Z,100137.59
2022-12-09T17:49:55.417Z,100140.84
2022-12-09T17:52:58.927Z,100142.88
2022-12-09T17:56:07.414Z,100153.06
2022-12-09T17:59:14.124Z,100148.16
2022-12-09T18:02:18.426Z,100151.47
2022-12-09T18:05:21.490Z,100158.25
2022-12-09T18:08:24.558Z,100155.50
2022-12-09T18:11:28.242Z,100156.47
2022-12-09T18:14:31.354Z,100154.84
2022-12-09T18:17:36.134Z,100161.09
2022-12-09T18:20:39.699Z,100162.09
2022-12-09T18:23:42.837Z,100166.44
2022-12-09T18:26:46.059Z,100174.16
2022-12-09T18:29:49.165Z,100164.53
2022-12-09T18:32:53.519Z,100165.19
2022-12-09T18:35:59.289Z,100171.91
2022-12-09T18:39:02.387Z,100168.91
2022-12-09T18:42:05.748Z,100167.84
2022-12-09T18:45:12.491Z,100170.22
2022-12-09T18:48:19.163Z,100173.56
2022-12-09T18:51:22.946Z,100173.72
2022-12-09T18:54:32.994Z,100178.00
2022-12-09T18:57:36.019Z,100189.81
2022-12-09T19:00:39.475Z,100195.91
2022-12-09T19:03:44.192Z,100192.41
2022-12-09T19:06:50.336Z,100190.72
2022-12-09T19:09:53.397Z,100183.81
2022-12-09T19:12:57.110Z,100182.09
2022-12-09T19:16:04.798Z,100186.84
2022-12-09T19:19:11.174Z,100187.78
2022-12-09T19:22:14.611Z,100190.47
2022-12-09T19:25:23.133Z,100184.44
2022-12-09T19:28:26.297Z,100187.66
2022-12-09T19:31:40.930Z,100185.13
2022-12-09T19:34:55.384Z,100191.09
2022-12-09T19:38:01.653Z,100199.53
2022-12-09T19:41:09.400Z,100203.09
2022-12-09T19:44:37.292Z,100207.25
2022-12-09T19:47:41.243Z,100200.50
2022-12-09T19:50:47.772Z,100202.03
2022-12-09T19:53:55.158Z,100210.63
2022-12-09T19:57:00.075Z,100215.97
2022-12-09T20:00:03.171Z,100219.25
2022-12-09T20:03:08.332Z,100219.41
2022-12-09T20:06:16.047Z,100219.47
2022-12-09T20:09:23.952Z,100206.47
2022-12-09T20:12:27.554Z,100216.81
2022-12-09T20:15:30.610Z,100214.81
2022-12-09T20:18:34.189Z,100206.25
2022-12-09T20:21:39.627Z,100201.88
2022-12-09T20:24:43.255Z,100205.09
2022-12-09T20:27:46.320Z,100206.59
2022-12-09T20:30:51.588Z,100198.16
2022-12-09T20:33:56.062Z,100203.41
2022-12-09T20:37:00.435Z,100199.13
2022-12-09T20:40:06.615Z,100208.63
2022-12-09T20:43:12.195Z,100211.06
2022-12-09T20:46:17.544Z,100217.81
2022-12-09T20:49:26.195Z,100213.38
2022-12-09T20:52:30.614Z,100213.28
2022-12-09T20:55:35.931Z,100216.50
2022-12-09T20:58:41.224Z,100218.94
2022-12-09T21:01:47.031Z,100215.38
2022-12-09T21:04:51.136Z,100220.47
2022-12-09T21:07:56.374Z,100228.13
2022-12-09T21:11:07.719Z,100216.19
2022-12-09T21:14:12.435Z,100218.75
2022-12-09T21:17:20.095Z,100220.34
2022-12-09T21:20:23.497Z,100212.81
2022-12-09T21:23:36.083Z,100215.22
2022-12-09T21:26:39.203Z,100216.19
2022-12-09T21:29:42.563Z,100215.22
2022-12-09T21:32:46.582Z,100217.66
2022-12-09T21:35:51.445Z,100213.53
2022-12-09T21:38:57.292Z,100214.53
2022-12-09T21:42:00.614Z,100210.88
2022-12-09T21:45:04.595Z,100214.19
2022-12-09T21:48:09.597Z,100216.75
2022-12-09T21:51:14.174Z,100208.47
2022-12-09T21:54:18.655Z,100214.66
2022-12-09T21:57:22.024Z,100206.75
2022-12-09T22:00:25.152Z,100211.03
2022-12-09T22:03:28.214Z,100215.38
2022-12-09T22:06:31.546Z,100213.00
2022-12-09T22:09:35.832Z,100218.75
2022-12-09T22:12:38.931Z,100212.03
2022-12-09T22:15:41.942Z,100212.13
2022-12-09T22:18:46.509Z,100214.84
2022-12-09T22:21:50.267Z,100214.00
2022-12-09T22:24:54.621Z,100214.97
2022-12-09T22:27:58.076Z,100216.69
2022-12-09T22:31:01.933Z,100222.09
2022-12-09T22:34:07.720Z,100233.03
2022-12-09T22:37:41.894Z,100226.13
2022-12-09T22:40:36.475Z,100215.00
2022-12-09T22:43:40.374Z,100211.59
2022-12-09T22:46:43.770Z,100213.78
2022-12-09T22:49:47.012Z,100216.41
2022-12-09T22:52:49.958Z,100219.91
2022-12-09T22:55:54.258Z,100224.06
2022-12-09T22:58:57.911Z,100219.06
2022-12-09T23:02:01.181Z,100223.50
2022-12-09T23:05:04.687Z,100219.06
2022-12-09T23:08:08.423Z,100223.13
2022-12-09T23:11:15.994Z,100233.78
2022-12-09T23:14:19.830Z,100232.94
2022-12-09T23:17:22.865Z,100233.53
2022-12-09T23:20:26.135Z,100229.94
2022-12-09T23:23:29.231Z,100229.03
2022-12-09T23:26:36.817Z,100220.53
2022-12-09T23:29:40.110Z,100225.00
2022-12-09T23:32:43.517Z,100224.88
2022-12-09T23:35:46.460Z,100222.34
2022-12-09T23:38:50.109Z,100236.28
2022-12-09T23:41:54.454Z,100233.72
2022-12-09T23:44:59.855Z,100228.91
2022-12-09T23:48:02.846Z,100225.69
2022-12-09T23:51:12.330Z,100232.22
2022-12-09T23:54:19.307Z,100227.97
2022-12-09T23:57:24.314Z,100234.88
